sensor_id;sensor_type;location;lat;lon;timestamp;pressure;altitude;pressure_sealevel;temperature;humidity
24752;BME280;27246;52.376;4.628;2023-05-02T00:01:18;101967.72;;;11.88;84.05
24752;BME280;27246;52.376;4.628;2023-05-02T00:06:20;101966.06;;;11.69;84.54
24752;BME280;27246;52.376;4.628;2023-05-02T00:11:22;101967.03;;;11.94;82.03
24752;BME280;27246;52.376;4.628;2023-05-02T00:16:24;101971.72;;;11.59;82.21
24752;BME280;27246;52.376;4.628;2023-05-02T00:21:26;101975.41;;;11.76;80.56
24752;BME280;27246;52.376;4.628;2023-05-02T00:26:29;101979.28;;;11.57;79.51
24752;BME280;27246;52.376;4.628;2023-05-02T00:31:31;101974.50;;;11.68;80.60
24752;BME280;27246;52.376;4.628;2023-05-02T00:36:33;101986.66;;;11.49;80.65
24752;BME280;27246;52.376;4.628;2023-05-02T00:41:34;102002.66;;;11.71;79.70
24752;BME280;27246;52.376;4.628;2023-05-02T00:46:36;102017.88;;;11.75;77.44
24752;BME280;27246;52.376;4.628;2023-05-02T00:51:39;102010.31;;;11.51;78.11
24752;BME280;27246;52.376;4.628;2023-05-02T00:56:41;102010.16;;;11.87;76.04
24752;BME280;27246;52.376;4.628;2023-05-02T01:01:59;102010.16;;;11.53;76.32
24752;BME280;27246;52.376;4.628;2023-05-02T01:07:26;102005.41;;;11.71;74.46
24752;BME280;27246;52.376;4.628;2023-05-02T01:12:39;102015.78;;;11.43;74.31
24752;BME280;27246;52.376;4.628;2023-05-02T01:17:43;102022.03;;;11.27;72.86
24752;BME280;27246;52.376;4.628;2023-05-02T01:22:46;102020.69;;;11.13;72.74
24752;BME280;27246;52.376;4.628;2023-05-02T01:33:23;102030.97;;;11.03;72.68
24752;BME280;27246;52.376;4.628;2023-05-02T01:38:26;102032.16;;;11.00;73.19
24752;BME280;27246;52.376;4.628;2023-05-02T01:43:29;102043.03;;;11.02;73.37
24752;BME280;27246;52.376;4.628;2023-05-02T01:48:34;102036.16;;;11.06;73.92
24752;BME280;27246;52.376;4.628;2023-05-02T01:53:37;102041.50;;;11.08;73.61
24752;BME280;27246;52.376;4.628;2023-05-02T01:58:40;102052.47;;;10.99;73.83
24752;BME280;27246;52.376;4.628;2023-05-02T02:03:45;102061.06;;;10.96;72.88
24752;BME280;27246;52.376;4.628;2023-05-02T02:08:49;102068.94;;;11.09;71.73
24752;BME280;27246;52.376;4.628;2023-05-02T02:13:56;102073.66;;;11.17;71.45
24752;BME280;27246;52.376;4.628;2023-05-02T02:19:06;102084.47;;;11.28;71.00
24752;BME280;27246;52.376;4.628;2023-05-02T02:24:10;102085.19;;;11.12;69.96
24752;BME280;27246;52.376;4.628;2023-05-02T02:29:13;102092.47;;;11.04;69.60
24752;BME280;27246;52.376;4.628;2023-05-02T02:34:29;102099.19;;;11.19;68.67
24752;BME280;27246;52.376;4.628;2023-05-02T02:45:34;102115.03;;;11.35;66.93
24752;BME280;27246;52.376;4.628;2023-05-02T02:55:56;102118.03;;;10.78;63.54
24752;BME280;27246;52.376;4.628;2023-05-02T03:01:02;102123.94;;;10.83;63.91
24752;BME280;27246;52.376;4.628;2023-05-02T03:06:05;102136.13;;;10.90;63.80
24752;BME280;27246;52.376;4.628;2023-05-02T03:11:07;102141.19;;;10.85;65.18
24752;BME280;27246;52.376;4.628;2023-05-02T03:16:36;102151.34;;;10.94;65.63
24752;BME280;27246;52.376;4.628;2023-05-02T03:21:41;102149.38;;;10.77;65.45
24752;BME280;27246;52.376;4.628;2023-05-02T03:26:53;102159.06;;;10.81;66.17
24752;BME280;27246;52.376;4.628;2023-05-02T03:31:58;102167.66;;;10.78;64.80
24752;BME280;27246;52.376;4.628;2023-05-02T03:37:00;102172.75;;;10.73;65.79
24752;BME280;27246;52.376;4.628;2023-05-02T03:42:04;102170.22;;;10.61;66.03
24752;BME280;27246;52.376;4.628;2023-05-02T03:47:06;102174.78;;;10.71;66.10
24752;BME280;27246;52.376;4.628;2023-05-02T03:52:14;102179.63;;;10.59;66.57
24752;BME280;27246;52.376;4.628;2023-05-02T03:57:17;102190.94;;;10.66;66.35
24752;BME280;27246;52.376;4.628;2023-05-02T04:02:19;102199.78;;;10.97;65.42
24752;BME280;27246;52.376;4.628;2023-05-02T04:07:22;102210.41;;;10.54;66.70
24752;BME280;27246;52.376;4.628;2023-05-02T04:12:34;102212.19;;;10.46;66.16
24752;BME280;27246;52.376;4.628;2023-05-02T04:17:37;102227.09;;;10.43;66.00
24752;BME280;27246;52.376;4.628;2023-05-02T04:22:41;102231.56;;;10.64;65.88
24752;BME280;27246;52.376;4.628;2023-05-02T04:27:43;102234.50;;;10.43;65.41
24752;BME280;27246;52.376;4.628;2023-05-02T04:32:49;102248.72;;;10.48;64.76
24752;BME280;27246;52.376;4.628;2023-05-02T04:37:52;102259.44;;;10.41;63.82
24752;BME280;27246;52.376;4.628;2023-05-02T04:42:54;102262.06;;;10.33;63.84
24752;BME280;27246;52.376;4.628;2023-05-02T04:47:58;102281.22;;;10.25;63.01
24752;BME280;27246;52.376;4.628;2023-05-02T04:53:00;102272.97;;;10.15;63.79
24752;BME280;27246;52.376;4.628;2023-05-02T04:58:02;102272.34;;;10.40;63.01
24752;BME280;27246;52.376;4.628;2023-05-02T05:03:06;102291.69;;;10.11;62.75
24752;BME280;27246;52.376;4.628;2023-05-02T05:08:08;102298.47;;;10.27;62.93
24752;BME280;27246;52.376;4.628;2023-05-02T05:13:11;102292.84;;;10.18;63.95
24752;BME280;27246;52.376;4.628;2023-05-02T05:18:16;102294.41;;;10.31;62.59
24752;BME280;27246;52.376;4.628;2023-05-02T05:23:17;102307.19;;;10.32;61.36
24752;BME280;27246;52.376;4.628;2023-05-02T05:28:21;102306.88;;;10.35;60.84
24752;BME280;27246;52.376;4.628;2023-05-02T05:33:24;102316.88;;;10.26;61.09
24752;BME280;27246;52.376;4.628;2023-05-02T05:38:26;102331.97;;;10.32;60.48
24752;BME280;27246;52.376;4.628;2023-05-02T05:43:28;102339.38;;;10.21;59.63
24752;BME280;27246;52.376;4.628;2023-05-02T05:48:30;102348.78;;;10.38;60.21
24752;BME280;27246;52.376;4.628;2023-05-02T05:53:33;102362.09;;;10.53;59.53
24752;BME280;27246;52.376;4.628;2023-05-02T05:58:38;102371.50;;;10.70;60.32
24752;BME280;27246;52.376;4.628;2023-05-02T06:03:41;102369.28;;;10.73;60.48
24752;BME280;27246;52.376;4.628;2023-05-02T06:08:43;102386.00;;;10.81;60.40
24752;BME280;27246;52.376;4.628;2023-05-02T06:13:45;102405.31;;;10.72;59.42
24752;BME280;27246;52.376;4.628;2023-05-02T06:18:49;102409.50;;;10.86;58.03
24752;BME280;27246;52.376;4.628;2023-05-02T06:23:52;102417.97;;;11.21;59.02
24752;BME280;27246;52.376;4.628;2023-05-02T06:28:55;102411.91;;;11.18;58.99
24752;BME280;27246;52.376;4.628;2023-05-02T06:33:57;102418.06;;;11.30;59.64
24752;BME280;27246;52.376;4.628;2023-05-02T06:38:58;102430.53;;;10.77;58.82
24752;BME280;27246;52.376;4.628;2023-05-02T06:44:00;102436.63;;;10.32;58.79
24752;BME280;27246;52.376;4.628;2023-05-02T06:49:01;102439.78;;;10.08;59.90
24752;BME280;27246;52.376;4.628;2023-05-02T06:54:03;102453.00;;;10.43;57.40
24752;BME280;27246;52.376;4.628;2023-05-02T06:59:05;102462.19;;;10.53;54.81
24752;BME280;27246;52.376;4.628;2023-05-02T07:04:06;102471.88;;;10.57;52.92
24752;BME280;27246;52.376;4.628;2023-05-02T07:09:08;102462.16;;;10.63;50.39
24752;BME280;27246;52.376;4.628;2023-05-02T07:14:10;102480.16;;;10.48;49.56
24752;BME280;27246;52.376;4.628;2023-05-02T07:19:11;102480.00;;;10.49;49.27
24752;BME280;27246;52.376;4.628;2023-05-02T07:24:13;102481.13;;;10.37;49.42
24752;BME280;27246;52.376;4.628;2023-05-02T07:29:15;102484.50;;;10.50;48.53
24752;BME280;27246;52.376;4.628;2023-05-02T07:34:17;102477.81;;;10.53;49.74
24752;BME280;27246;52.376;4.628;2023-05-02T07:39:20;102489.28;;;10.48;48.63
24752;BME280;27246;52.376;4.628;2023-05-02T07:44:21;102494.34;;;10.63;47.83
24752;BME280;27246;52.376;4.628;2023-05-02T07:49:23;102497.25;;;10.61;47.87
24752;BME280;27246;52.376;4.628;2023-05-02T07:54:25;102507.84;;;10.56;47.51
24752;BME280;27246;52.376;4.628;2023-05-02T07:59:26;102513.22;;;10.77;48.45
24752;BME280;27246;52.376;4.628;2023-05-02T08:04:28;102526.41;;;10.83;47.94
24752;BME280;27246;52.376;4.628;2023-05-02T08:09:30;102522.22;;;10.79;47.50
24752;BME280;27246;52.376;4.628;2023-05-02T08:14:32;102524.25;;;10.87;47.23
24752;BME280;27246;52.376;4.628;2023-05-02T08:19:33;102524.53;;;11.13;46.04
24752;BME280;27246;52.376;4.628;2023-05-02T08:24:35;102526.72;;;10.99;46.84
24752;BME280;27246;52.376;4.628;2023-05-02T08:29:37;102536.56;;;10.82;45.58
24752;BME280;27246;52.376;4.628;2023-05-02T08:34:38;102536.56;;;11.12;46.42
24752;BME280;27246;52.376;4.628;2023-05-02T08:39:40;102541.09;;;11.23;46.04
24752;BME280;27246;52.376;4.628;2023-05-02T08:44:42;102540.34;;;11.30;46.50
24752;BME280;27246;52.376;4.628;2023-05-02T08:49:44;102549.31;;;11.42;45.47
24752;BME280;27246;52.376;4.628;2023-05-02T08:54:47;102555.84;;;11.51;46.67
24752;BME280;27246;52.376;4.628;2023-05-02T08:59:51;102563.25;;;11.50;45.13
24752;BME280;27246;52.376;4.628;2023-05-02T09:04:55;102571.22;;;11.53;46.28
24752;BME280;27246;52.376;4.628;2023-05-02T09:10:03;102559.94;;;11.47;47.25
24752;BME280;27246;52.376;4.628;2023-05-02T09:15:13;102561.06;;;11.54;46.96
24752;BME280;27246;52.376;4.628;2023-05-02T09:20:19;102572.06;;;11.73;46.51
24752;BME280;27246;52.376;4.628;2023-05-02T09:25:21;102580.81;;;11.59;45.50
24752;BME280;27246;52.376;4.628;2023-05-02T09:30:24;102576.63;;;11.92;45.65
24752;BME280;27246;52.376;4.628;2023-05-02T09:35:27;102584.81;;;12.21;43.81
24752;BME280;27246;52.376;4.628;2023-05-02T09:40:28;102574.84;;;12.29;43.63
24752;BME280;27246;52.376;4.628;2023-05-02T09:45:31;102593.56;;;13.08;42.18
24752;BME280;27246;52.376;4.628;2023-05-02T09:50:36;102592.78;;;13.16;42.49
24752;BME280;27246;52.376;4.628;2023-05-02T09:55:39;102602.50;;;13.20;42.08
24752;BME280;27246;52.376;4.628;2023-05-02T10:00:43;102603.38;;;12.57;42.65
24752;BME280;27246;52.376;4.628;2023-05-02T10:05:46;102612.91;;;12.72;42.10
24752;BME280;27246;52.376;4.628;2023-05-02T10:10:55;102618.81;;;12.59;42.51
24752;BME280;27246;52.376;4.628;2023-05-02T10:16:03;102618.31;;;12.92;42.37
24752;BME280;27246;52.376;4.628;2023-05-02T10:21:15;102608.34;;;12.99;42.24
24752;BME280;27246;52.376;4.628;2023-05-02T10:26:22;102615.44;;;13.19;41.67
24752;BME280;27246;52.376;4.628;2023-05-02T10:31:24;102613.22;;;13.41;40.12
24752;BME280;27246;52.376;4.628;2023-05-02T10:36:27;102630.47;;;13.35;39.52
24752;BME280;27246;52.376;4.628;2023-05-02T10:41:31;102639.78;;;13.70;38.73
24752;BME280;27246;52.376;4.628;2023-05-02T10:46:35;102635.38;;;13.59;39.17
24752;BME280;27246;52.376;4.628;2023-05-02T10:51:39;102640.22;;;14.09;39.09
24752;BME280;27246;52.376;4.628;2023-05-02T10:57:04;102637.16;;;14.20;39.30
24752;BME280;27246;52.376;4.628;2023-05-02T11:07:33;102632.94;;;14.85;37.27
24752;BME280;27246;52.376;4.628;2023-05-02T11:12:50;102658.72;;;15.28;36.13
24752;BME280;27246;52.376;4.628;2023-05-02T11:33:39;102655.06;;;16.02;37.23
24752;BME280;27246;52.376;4.628;2023-05-02T11:38:41;102657.66;;;16.19;34.22
24752;BME280;27246;52.376;4.628;2023-05-02T11:43:42;102660.06;;;16.23;36.56
24752;BME280;27246;52.376;4.628;2023-05-02T11:48:44;102666.34;;;16.08;35.29
24752;BME280;27246;52.376;4.628;2023-05-02T11:53:46;102673.72;;;16.49;36.04
24752;BME280;27246;52.376;4.628;2023-05-02T11:58:59;102678.22;;;16.58;36.67
24752;BME280;27246;52.376;4.628;2023-05-02T12:04:06;102682.13;;;16.80;34.70
24752;BME280;27246;52.376;4.628;2023-05-02T12:09:13;102698.13;;;16.78;36.45
24752;BME280;27246;52.376;4.628;2023-05-02T12:14:28;102686.31;;;16.84;35.64
24752;BME280;27246;52.376;4.628;2023-05-02T12:19:33;102688.53;;;17.20;35.54
24752;BME280;27246;52.376;4.628;2023-05-02T12:24:37;102681.09;;;17.35;34.30
24752;BME280;27246;52.376;4.628;2023-05-02T12:29:44;102690.41;;;16.96;34.53
24752;BME280;27246;52.376;4.628;2023-05-02T12:34:46;102694.47;;;17.17;34.40
24752;BME280;27246;52.376;4.628;2023-05-02T12:39:50;102709.19;;;17.26;34.17
24752;BME280;27246;52.376;4.628;2023-05-02T12:44:53;102704.25;;;16.01;35.43
24752;BME280;27246;52.376;4.628;2023-05-02T12:49:57;102706.72;;;16.99;34.60
24752;BME280;27246;52.376;4.628;2023-05-02T12:55:20;102711.34;;;17.15;35.87
24752;BME280;27246;52.376;4.628;2023-05-02T13:00:27;102721.63;;;17.15;34.76
24752;BME280;27246;52.376;4.628;2023-05-02T13:05:29;102717.38;;;17.27;34.78
24752;BME280;27246;52.376;4.628;2023-05-02T13:10:30;102719.47;;;17.25;32.83
24752;BME280;27246;52.376;4.628;2023-05-02T13:15:32;102731.34;;;17.19;32.41
24752;BME280;27246;52.376;4.628;2023-05-02T13:20:34;102717.56;;;16.94;33.13
24752;BME280;27246;52.376;4.628;2023-05-02T13:25:36;102738.44;;;16.18;34.12
24752;BME280;27246;52.376;4.628;2023-05-02T13:30:37;102728.47;;;16.56;34.21
24752;BME280;27246;52.376;4.628;2023-05-02T13:35:39;102728.97;;;16.60;33.44
24752;BME280;27246;52.376;4.628;2023-05-02T13:40:44;102745.50;;;16.62;33.19
24752;BME280;27246;52.376;4.628;2023-05-02T13:45:45;102735.00;;;16.08;34.09
24752;BME280;27246;52.376;4.628;2023-05-02T13:50:51;102739.78;;;16.47;35.15
24752;BME280;27246;52.376;4.628;2023-05-02T13:55:53;102750.03;;;16.54;35.64
24752;BME280;27246;52.376;4.628;2023-05-02T14:00:55;102745.22;;;16.32;34.50
24752;BME280;27246;52.376;4.628;2023-05-02T14:05:57;102754.94;;;16.44;33.04
24752;BME280;27246;52.376;4.628;2023-05-02T14:10:58;102747.66;;;15.77;33.60
24752;BME280;27246;52.376;4.628;2023-05-02T14:16:00;102751.50;;;16.09;34.08
24752;BME280;27246;52.376;4.628;2023-05-02T14:21:02;102753.75;;;16.06;34.24
24752;BME280;27246;52.376;4.628;2023-05-02T14:26:04;102756.19;;;16.00;34.73
24752;BME280;27246;52.376;4.628;2023-05-02T14:31:06;102754.78;;;16.37;34.75
24752;BME280;27246;52.376;4.628;2023-05-02T14:36:08;102751.47;;;16.34;35.28
24752;BME280;27246;52.376;4.628;2023-05-02T14:41:09;102748.91;;;16.08;35.36
24752;BME280;27246;52.376;4.628;2023-05-02T14:46:11;102745.41;;;16.22;35.14
24752;BME280;27246;52.376;4.628;2023-05-02T14:51:13;102749.25;;;16.21;35.05
24752;BME280;27246;52.376;4.628;2023-05-02T14:56:14;102737.63;;;16.01;35.65
24752;BME280;27246;52.376;4.628;2023-05-02T15:01:20;102744.91;;;15.94;35.37
24752;BME280;27246;52.376;4.628;2023-05-02T15:06:22;102739.13;;;15.63;35.52
24752;BME280;27246;52.376;4.628;2023-05-02T15:11:24;102743.44;;;15.49;35.25
24752;BME280;27246;52.376;4.628;2023-05-02T15:16:25;102751.63;;;15.67;36.37
24752;BME280;27246;52.376;4.628;2023-05-02T15:21:28;102746.25;;;15.65;37.33
24752;BME280;27246;52.376;4.628;2023-05-02T15:26:31;102746.25;;;15.65;36.24
24752;BME280;27246;52.376;4.628;2023-05-02T15:31:32;102738.91;;;15.39;37.15
24752;BME280;27246;52.376;4.628;2023-05-02T15:36:35;102756.13;;;15.59;37.09
24752;BME280;27246;52.376;4.628;2023-05-02T15:41:41;102750.69;;;15.33;37.95
24752;BME280;27246;52.376;4.628;2023-05-02T15:46:42;102744.13;;;15.43;38.68
24752;BME280;27246;52.376;4.628;2023-05-02T15:51:47;102753.03;;;15.04;38.24
24752;BME280;27246;52.376;4.628;2023-05-02T15:56:49;102766.09;;;15.19;38.88
24752;BME280;27246;52.376;4.628;2023-05-02T16:01:52;102759.94;;;14.39;39.89
24752;BME280;27246;52.376;4.628;2023-05-02T16:06:54;102755.38;;;14.56;39.51
24752;BME280;27246;52.376;4.628;2023-05-02T16:11:56;102757.00;;;14.67;40.62
24752;BME280;27246;52.376;4.628;2023-05-02T16:16:58;102753.16;;;14.86;40.73
24752;BME280;27246;52.376;4.628;2023-05-02T16:22:03;102754.88;;;14.60;40.71
24752;BME280;27246;52.376;4.628;2023-05-02T16:27:05;102761.31;;;14.35;40.82
24752;BME280;27246;52.376;4.628;2023-05-02T16:32:07;102736.44;;;14.43;40.78
24752;BME280;27246;52.376;4.628;2023-05-02T16:37:08;102753.31;;;14.58;40.16
24752;BME280;27246;52.376;4.628;2023-05-02T16:42:11;102757.06;;;14.75;40.52
24752;BME280;27246;52.376;4.628;2023-05-02T16:47:12;102737.13;;;15.14;40.53
24752;BME280;27246;52.376;4.628;2023-05-02T16:52:14;102732.19;;;14.99;40.29
24752;BME280;27246;52.376;4.628;2023-05-02T16:57:16;102745.81;;;15.27;39.79
24752;BME280;27246;52.376;4.628;2023-05-02T17:02:22;102760.59;;;15.36;40.06
24752;BME280;27246;52.376;4.628;2023-05-02T17:07:23;102762.97;;;15.14;39.95
24752;BME280;27246;52.376;4.628;2023-05-02T17:12:25;102756.91;;;15.19;39.86
24752;BME280;27246;52.376;4.628;2023-05-02T17:17:28;102763.34;;;14.85;40.91
24752;BME280;27246;52.376;4.628;2023-05-02T17:22:29;102765.31;;;14.67;40.92
24752;BME280;27246;52.376;4.628;2023-05-02T17:27:31;102764.91;;;14.79;41.11
24752;BME280;27246;52.376;4.628;2023-05-02T17:32:33;102783.59;;;14.25;40.00
24752;BME280;27246;52.376;4.628;2023-05-02T17:37:38;102780.41;;;14.38;40.70
24752;BME280;27246;52.376;4.628;2023-05-02T17:42:43;102779.44;;;14.03;38.92
24752;BME280;27246;52.376;4.628;2023-05-02T17:47:50;102777.72;;;14.28;40.70
24752;BME280;27246;52.376;4.628;2023-05-02T17:52:52;102775.03;;;14.18;40.49
24752;BME280;27246;52.376;4.628;2023-05-02T17:57:53;102781.25;;;14.12;40.58
24752;BME280;27246;52.376;4.628;2023-05-02T18:02:55;102770.34;;;14.11;41.79
24752;BME280;27246;52.376;4.628;2023-05-02T18:07:57;102778.16;;;14.15;41.05
24752;BME280;27246;52.376;4.628;2023-05-02T18:12:59;102783.94;;;13.86;41.66
24752;BME280;27246;52.376;4.628;2023-05-02T18:18:01;102778.06;;;13.53;41.50
24752;BME280;27246;52.376;4.628;2023-05-02T18:23:03;102793.31;;;13.85;42.58
24752;BME280;27246;52.376;4.628;2023-05-02T18:28:06;102787.88;;;13.48;42.18
24752;BME280;27246;52.376;4.628;2023-05-02T18:33:08;102788.84;;;13.11;42.40
24752;BME280;27246;52.376;4.628;2023-05-02T18:38:09;102791.31;;;12.76;42.85
24752;BME280;27246;52.376;4.628;2023-05-02T18:43:11;102788.44;;;12.68;43.76
24752;BME280;27246;52.376;4.628;2023-05-02T18:48:13;102794.00;;;12.58;44.56
24752;BME280;27246;52.376;4.628;2023-05-02T18:53:15;102788.47;;;12.58;44.51
24752;BME280;27246;52.376;4.628;2023-05-02T18:58:16;102791.72;;;12.44;45.69
24752;BME280;27246;52.376;4.628;2023-05-02T19:03:18;102799.03;;;11.67;46.92
24752;BME280;27246;52.376;4.628;2023-05-02T19:08:23;102807.59;;;11.54;47.55
24752;BME280;27246;52.376;4.628;2023-05-02T19:13:25;102818.63;;;12.42;47.34
24752;BME280;27246;52.376;4.628;2023-05-02T19:18:30;102820.69;;;11.81;46.91
24752;BME280;27246;52.376;4.628;2023-05-02T19:23:32;102822.22;;;11.45;47.94
24752;BME280;27246;52.376;4.628;2023-05-02T19:28:33;102822.81;;;11.39;48.05
24752;BME280;27246;52.376;4.628;2023-05-02T19:33:36;102830.66;;;11.44;47.64
24752;BME280;27246;52.376;4.628;2023-05-02T19:38:38;102825.78;;;11.16;48.39
24752;BME280;27246;52.376;4.628;2023-05-02T19:43:42;102829.97;;;11.11;48.74
24752;BME280;27246;52.376;4.628;2023-05-02T19:48:44;102828.19;;;11.00;48.25
24752;BME280;27246;52.376;4.628;2023-05-02T19:53:45;102837.56;;;10.88;48.92
24752;BME280;27246;52.376;4.628;2023-05-02T19:58:47;102852.00;;;11.01;48.81
24752;BME280;27246;52.376;4.628;2023-05-02T20:03:49;102848.03;;;11.25;48.53
24752;BME280;27246;52.376;4.628;2023-05-02T20:08:52;102849.38;;;10.99;49.35
24752;BME280;27246;52.376;4.628;2023-05-02T20:13:53;102853.97;;;10.89;49.37
24752;BME280;27246;52.376;4.628;2023-05-02T20:18:56;102867.41;;;10.82;49.62
24752;BME280;27246;52.376;4.628;2023-05-02T20:23:58;102866.78;;;10.79;50.15
24752;BME280;27246;52.376;4.628;2023-05-02T20:28:59;102872.19;;;10.80;50.10
24752;BME280;27246;52.376;4.628;2023-05-02T20:34:01;102877.56;;;10.82;50.70
24752;BME280;27246;52.376;4.628;2023-05-02T20:39:03;102880.44;;;10.80;50.39
24752;BME280;27246;52.376;4.628;2023-05-02T20:44:11;102881.78;;;10.65;51.05
24752;BME280;27246;52.376;4.628;2023-05-02T20:49:17;102860.50;;;10.46;51.30
24752;BME280;27246;52.376;4.628;2023-05-02T20:54:19;102861.50;;;10.24;51.39
24752;BME280;27246;52.376;4.628;2023-05-02T20:59:21;102863.28;;;10.25;51.70
24752;BME280;27246;52.376;4.628;2023-05-02T21:04:23;102863.72;;;10.09;51.50
24752;BME280;27246;52.376;4.628;2023-05-02T21:09:24;102865.97;;;10.04;52.56
24752;BME280;27246;52.376;4.628;2023-05-02T21:14:28;102876.00;;;10.05;53.05
24752;BME280;27246;52.376;4.628;2023-05-02T21:19:29;102874.28;;;10.25;52.05
24752;BME280;27246;52.376;4.628;2023-05-02T21:24:35;102875.91;;;10.28;52.43
24752;BME280;27246;52.376;4.628;2023-05-02T21:29:36;102876.06;;;10.15;51.81
24752;BME280;27246;52.376;4.628;2023-05-02T21:34:38;102860.16;;;9.86;52.47
24752;BME280;27246;52.376;4.628;2023-05-02T21:39:40;102858.25;;;9.98;52.71
24752;BME280;27246;52.376;4.628;2023-05-02T21:44:44;102849.91;;;9.45;53.79
24752;BME280;27246;52.376;4.628;2023-05-02T21:49:46;102847.63;;;9.61;53.83
24752;BME280;27246;52.376;4.628;2023-05-02T21:54:48;102836.94;;;9.79;53.67
24752;BME280;27246;52.376;4.628;2023-05-02T21:59:50;102839.81;;;9.77;53.75
24752;BME280;27246;52.376;4.628;2023-05-02T22:04:52;102843.31;;;9.79;54.72
24752;BME280;27246;52.376;4.628;2023-05-02T22:09:54;102842.28;;;9.80;54.74
24752;BME280;27246;52.376;4.628;2023-05-02T22:14:56;102840.06;;;9.74;54.99
24752;BME280;27246;52.376;4.628;2023-05-02T22:20:10;102841.84;;;9.64;54.65
24752;BME280;27246;52.376;4.628;2023-05-02T22:25:13;102849.16;;;9.43;54.77
24752;BME280;27246;52.376;4.628;2023-05-02T22:30:21;102851.75;;;9.55;55.98
24752;BME280;27246;52.376;4.628;2023-05-02T22:35:23;102851.75;;;9.67;56.48
24752;BME280;27246;52.376;4.628;2023-05-02T22:40:32;102853.59;;;9.66;56.00
24752;BME280;27246;52.376;4.628;2023-05-02T22:45:34;102852.09;;;9.62;55.81
24752;BME280;27246;52.376;4.628;2023-05-02T22:50:37;102850.88;;;9.55;55.96
24752;BME280;27246;52.376;4.628;2023-05-02T22:55:39;102857.88;;;9.59;56.43
24752;BME280;27246;52.376;4.628;2023-05-02T23:00:41;102856.28;;;9.56;56.16
24752;BME280;27246;52.376;4.628;2023-05-02T23:05:43;102849.13;;;9.54;55.65
24752;BME280;27246;52.376;4.628;2023-05-02T23:10:45;102853.41;;;9.47;56.19
24752;BME280;27246;52.376;4.628;2023-05-02T23:15:51;102853.66;;;9.44;56.81
24752;BME280;27246;52.376;4.628;2023-05-02T23:20:55;102858.69;;;9.38;57.58
24752;BME280;27246;52.376;4.628;2023-05-02T23:25:57;102871.06;;;9.33;57.29
24752;BME280;27246;52.376;4.628;2023-05-02T23:30:59;102865.69;;;9.31;56.92
24752;BME280;27246;52.376;4.628;2023-05-02T23:36:01;102867.66;;;9.29;57.22
24752;BME280;27246;52.376;4.628;2023-05-02T23:41:04;102872.66;;;9.24;57.64
24752;BME280;27246;52.376;4.628;2023-05-02T23:46:06;102885.28;;;9.27;57.91
24752;BME280;27246;52.376;4.628;2023-05-02T23:51:08;102885.16;;;9.17;58.56
24752;BME280;27246;52.376;4.628;2023-05-02T23:56:10;102885.28;;;9.04;59.09
